createdAt,value
2023-02-24T00:02:50.115Z,23.00
2023-02-24T00:07:54.358Z,21.45
2023-02-24T00:12:59.238Z,20.10
2023-02-24T00:23:11.500Z,20.90
2023-02-24T00:28:15.658Z,19.63
2023-02-24T00:33:23.194Z,19.30
2023-02-24T00:38:31.780Z,20.13
2023-02-24T00:43:37.978Z,18.60
2023-02-24T00:48:46.072Z,19.17
2023-02-24T00:53:51.561Z,20.15
2023-02-24T00:58:57.496Z,19.45
2023-02-24T01:04:11.470Z,19.90
2023-02-24T01:09:18.965Z,20.67
2023-02-24T01:14:27.213Z,19.70
2023-02-24T01:19:35.583Z,17.83
2023-02-24T01:24:42.554Z,18.90
2023-02-24T01:29:47.453Z,19.60
2023-02-24T01:34:54.850Z,19.67
2023-02-24T01:40:04.780Z,18.65
2023-02-24T01:45:29.722Z,17.88
2023-02-24T01:55:49.189Z,19.13
2023-02-24T02:00:54.353Z,19.05
2023-02-24T02:11:11.355Z,20.45
2023-02-24T02:16:46.346Z,18.55
2023-02-24T02:22:08.433Z,18.85
2023-02-24T02:27:41.241Z,19.02
2023-02-24T02:33:36.120Z,18.42
2023-02-24T02:38:54.112Z,18.02
2023-02-24T02:44:12.111Z,18.73
2023-02-24T02:49:24.076Z,18.02
2023-02-24T02:54:36.713Z,17.88
2023-02-24T02:59:50.023Z,17.45
2023-02-24T03:04:58.251Z,17.83
2023-02-24T03:10:11.428Z,18.70
2023-02-24T03:15:21.065Z,18.30
2023-02-24T03:20:32.721Z,19.23
2023-02-24T03:25:46.840Z,18.10
2023-02-24T03:31:03.729Z,19.52
2023-02-24T03:36:08.798Z,18.75
2023-02-24T03:41:17.206Z,18.60
2023-02-24T03:46:22.183Z,20.10
2023-02-24T03:51:26.634Z,19.52
2023-02-24T03:56:50.563Z,19.25
2023-02-24T04:02:03.770Z,20.20
2023-02-24T04:07:24.058Z,19.15
2023-02-24T04:12:38.281Z,20.67
2023-02-24T04:17:51.033Z,18.30
2023-02-24T04:23:03.062Z,19.08
2023-02-24T04:28:09.217Z,18.95
2023-02-24T04:33:16.697Z,19.83
2023-02-24T04:43:29.595Z,18.98
2023-02-24T04:48:33.975Z,18.58
2023-02-24T04:53:38.151Z,20.05
2023-02-24T04:58:46.384Z,19.13
2023-02-24T05:03:50.749Z,20.63
2023-02-24T05:08:54.986Z,19.73
2023-02-24T05:14:00.684Z,20.52
2023-02-24T05:19:22.880Z,20.00
2023-02-24T05:24:29.911Z,22.83
2023-02-24T05:29:36.896Z,21.02
2023-02-24T05:34:42.748Z,21.63
2023-02-24T05:39:47.145Z,18.92
2023-02-24T05:44:53.685Z,21.98
2023-02-24T05:49:59.258Z,19.33
2023-02-24T05:55:06.667Z,18.35
2023-02-24T06:00:16.331Z,19.45
2023-02-24T06:05:31.092Z,19.48
2023-02-24T06:10:35.949Z,20.02
2023-02-24T06:20:51.401Z,18.98
2023-02-24T06:25:57.828Z,18.90
2023-02-24T06:31:06.979Z,20.17
2023-02-24T06:36:11.494Z,19.17
2023-02-24T06:41:15.627Z,20.50
2023-02-24T06:46:21.349Z,19.97
2023-02-24T06:51:30.375Z,19.35
2023-02-24T06:56:38.821Z,20.90
2023-02-24T07:01:47.200Z,20.73
2023-02-24T07:06:55.835Z,21.10
2023-02-24T07:12:02.880Z,23.38
2023-02-24T07:17:08.695Z,22.42
2023-02-24T07:22:17.073Z,21.50
2023-02-24T07:27:23.297Z,22.27
2023-02-24T07:32:30.640Z,22.80
2023-02-24T07:37:35.253Z,22.08
2023-02-24T07:42:39.815Z,24.30
2023-02-24T07:47:45.606Z,25.30
2023-02-24T07:52:50.047Z,24.00
2023-02-24T07:57:54.852Z,25.95
2023-02-24T08:03:00.818Z,26.75
2023-02-24T08:08:05.142Z,25.80
2023-02-24T08:13:12.078Z,25.50
2023-02-24T08:18:20.093Z,26.73
2023-02-24T08:23:24.517Z,25.27
2023-02-24T08:28:28.644Z,26.47
2023-02-24T08:33:37.300Z,24.67
2023-02-24T08:38:42.362Z,22.42
2023-02-24T08:43:48.035Z,24.58
2023-02-24T08:48:56.544Z,24.70
2023-02-24T08:54:11.428Z,23.90
2023-02-24T09:04:46.005Z,25.85
2023-02-24T09:09:50.920Z,22.40
2023-02-24T09:20:44.319Z,18.02
2023-02-24T09:25:54.349Z,19.08
2023-02-24T09:31:04.862Z,19.17
2023-02-24T09:36:13.843Z,17.00
2023-02-24T09:41:33.599Z,16.40
2023-02-24T09:46:54.254Z,18.83
2023-02-24T09:52:08.974Z,19.15
2023-02-24T09:57:20.052Z,20.50
2023-02-24T10:02:45.157Z,20.35
2023-02-24T10:13:13.357Z,17.08
2023-02-24T10:18:29.037Z,16.13
2023-02-24T10:23:56.828Z,17.08
2023-02-24T10:29:22.568Z,16.35
2023-02-24T10:34:32.024Z,16.17
2023-02-24T10:39:42.503Z,15.18
2023-02-24T10:45:01.510Z,15.65
2023-02-24T10:50:20.910Z,15.15
2023-02-24T10:55:52.318Z,14.05
2023-02-24T11:01:13.660Z,14.20
2023-02-24T11:06:47.238Z,14.07
2023-02-24T11:12:10.483Z,12.52
2023-02-24T11:17:27.158Z,12.88
2023-02-24T11:22:37.322Z,14.27
2023-02-24T11:27:47.388Z,12.80
2023-02-24T11:33:18.339Z,12.80
2023-02-24T11:38:37.279Z,12.57
2023-02-24T11:43:47.209Z,12.00
2023-02-24T11:48:57.692Z,10.38
2023-02-24T11:54:05.218Z,12.23
2023-02-24T11:59:19.342Z,11.73
2023-02-24T12:04:31.310Z,10.75
2023-02-24T12:09:44.207Z,11.38
2023-02-24T12:14:54.547Z,10.15
2023-02-24T12:20:06.566Z,10.95
2023-02-24T12:25:15.114Z,10.07
2023-02-24T12:30:49.001Z,9.80
2023-02-24T12:36:04.093Z,10.07
2023-02-24T12:41:26.650Z,10.98
2023-02-24T12:46:36.339Z,11.25
2023-02-24T12:51:52.068Z,10.23
2023-02-24T12:57:07.233Z,9.27
2023-02-24T13:07:52.045Z,8.93
2023-02-24T13:13:10.616Z,8.75
2023-02-24T13:18:26.472Z,8.93
2023-02-24T13:23:31.725Z,8.23
2023-02-24T13:28:38.616Z,7.55
2023-02-24T13:33:46.163Z,8.35
2023-02-24T13:38:52.733Z,8.05
2023-02-24T13:44:00.282Z,8.07
2023-02-24T13:49:37.763Z,9.65
2023-02-24T13:55:22.784Z,9.23
2023-02-24T14:00:37.874Z,9.67
2023-02-24T14:05:44.544Z,13.98
2023-02-24T14:10:55.165Z,12.35
2023-02-24T14:16:02.402Z,10.35
2023-02-24T14:21:18.497Z,9.63
2023-02-24T14:26:23.362Z,7.40
2023-02-24T14:31:28.879Z,7.93
2023-02-24T14:36:40.212Z,8.45
2023-02-24T14:41:45.657Z,8.77
2023-02-24T14:46:52.327Z,9.73
2023-02-24T14:52:05.547Z,9.88
2023-02-24T14:57:16.065Z,10.90
2023-02-24T15:02:25.949Z,10.85
2023-02-24T15:07:35.226Z,10.27
2023-02-24T15:12:48.054Z,10.77
2023-02-24T15:17:58.923Z,11.05
2023-02-24T15:23:05.403Z,10.80
2023-02-24T15:28:25.931Z,12.38
2023-02-24T15:33:37.393Z,11.60
2023-02-24T15:38:44.464Z,12.30
2023-02-24T15:43:53.268Z,13.80
2023-02-24T15:49:01.763Z,13.82
2023-02-24T15:54:13.629Z,14.40
2023-02-24T15:59:21.372Z,14.80
2023-02-24T16:04:27.711Z,13.80
2023-02-24T16:09:38.066Z,15.27
2023-02-24T16:14:44.018Z,15.45
2023-02-24T16:19:48.199Z,14.90
2023-02-24T16:24:54.142Z,13.85
2023-02-24T16:29:59.374Z,15.10
2023-02-24T16:35:04.114Z,15.85
2023-02-24T16:40:25.220Z,16.27
2023-02-24T16:45:32.172Z,20.40
2023-02-24T16:50:41.419Z,20.30
2023-02-24T16:55:48.708Z,24.85
2023-02-24T17:00:59.041Z,23.42
2023-02-24T17:06:03.372Z,26.58
2023-02-24T17:11:13.751Z,28.92
2023-02-24T17:16:18.813Z,33.65
2023-02-24T17:21:23.253Z,28.52
2023-02-24T17:26:29.340Z,30.70
2023-02-24T17:31:35.063Z,31.55
2023-02-24T17:36:39.449Z,30.98
2023-02-24T17:41:45.425Z,30.23
2023-02-24T17:46:49.706Z,30.20
2023-02-24T17:51:54.027Z,28.58
2023-02-24T17:56:59.830Z,30.48
2023-02-24T18:02:04.612Z,30.63
2023-02-24T18:12:14.730Z,33.63
2023-02-24T18:17:19.984Z,32.65
2023-02-24T18:22:25.601Z,33.08
2023-02-24T18:27:32.799Z,33.55
2023-02-24T18:32:44.564Z,34.63
2023-02-24T18:37:53.297Z,33.78
2023-02-24T18:42:59.014Z,35.35
2023-02-24T18:48:05.233Z,35.95
2023-02-24T18:53:09.378Z,42.67
2023-02-24T18:58:15.261Z,45.50
2023-02-24T19:03:19.547Z,47.30
2023-02-24T19:08:23.815Z,49.33
2023-02-24T19:13:29.500Z,44.03
2023-02-24T19:18:34.555Z,37.22
2023-02-24T19:23:39.859Z,36.63
2023-02-24T19:28:46.314Z,33.72
2023-02-24T19:33:53.880Z,36.90
2023-02-24T19:38:58.413Z,31.77
2023-02-24T19:44:04.487Z,34.28
2023-02-24T19:49:08.827Z,35.15
2023-02-24T19:54:14.899Z,37.72
2023-02-24T19:59:20.613Z,35.28
2023-02-24T20:04:25.649Z,35.70
2023-02-24T20:09:29.947Z,34.03
2023-02-24T20:14:35.766Z,35.30
2023-02-24T20:19:40.833Z,33.92
2023-02-24T20:24:45.167Z,35.45
2023-02-24T20:29:53.467Z,35.38
2023-02-24T20:34:58.268Z,37.83
2023-02-24T20:45:12.360Z,47.10
2023-02-24T20:50:16.968Z,45.45
2023-02-24T20:55:22.637Z,51.88
2023-02-24T21:00:28.642Z,54.33
2023-02-24T21:05:32.920Z,47.17
2023-02-24T21:10:37.108Z,41.28
2023-02-24T21:15:50.145Z,39.85
2023-02-24T21:20:55.719Z,36.38
2023-02-24T21:26:00.635Z,31.20
2023-02-24T21:31:12.413Z,30.85
2023-02-24T21:36:16.813Z,27.30
2023-02-24T21:41:21.974Z,28.67
2023-02-24T21:46:28.555Z,25.15
2023-02-24T21:51:33.518Z,17.75
2023-02-24T21:56:37.848Z,18.70
2023-02-24T22:01:46.017Z,17.85
2023-02-24T22:06:50.946Z,18.73
2023-02-24T22:11:55.595Z,16.30
2023-02-24T22:17:01.130Z,17.02
2023-02-24T22:22:05.999Z,18.95
2023-02-24T22:27:10.230Z,17.13
2023-02-24T22:32:16.451Z,17.98
2023-02-24T22:37:20.888Z,17.67
2023-02-24T22:42:25.923Z,17.95
2023-02-24T22:47:32.281Z,13.45
2023-02-24T22:52:36.849Z,12.07
2023-02-24T22:57:41.185Z,11.27
2023-02-24T23:02:47.697Z,11.35
2023-02-24T23:07:52.361Z,11.60
2023-02-24T23:12:57.026Z,12.25
2023-02-24T23:18:03.024Z,11.45
2023-02-24T23:23:08.365Z,12.98
2023-02-24T23:28:12.560Z,11.93
2023-02-24T23:33:18.564Z,11.43
2023-02-24T23:38:22.874Z,10.82
2023-02-24T23:43:27.369Z,11.25
2023-02-24T23:48:33.821Z,11.57
2023-02-24T23:53:39.442Z,11.25
2023-02-24T23:58:44.215Z,12.00
